createdAt,value
2022-09-15T00:00:06.630Z,97139.00
2022-09-15T00:00:17.530Z,97139.00
2022-09-15T00:00:28.000Z,97139.00
2022-09-15T00:00:36.584Z,97141.00
2022-09-15T00:00:47.487Z,97139.00
2022-09-15T00:00:58.002Z,97139.00
2022-09-15T00:01:06.531Z,97139.00
2022-09-15T00:01:17.471Z,97143.00
2022-09-15T00:01:28.039Z,97139.00
2022-09-15T00:01:38.101Z,97139.00
2022-09-15T00:01:46.601Z,97141.00
2022-09-15T00:01:56.560Z,97139.00
2022-09-15T00:02:08.114Z,97143.00
2022-09-15T00:02:18.157Z,97143.00
2022-09-15T00:02:26.602Z,97143.00
2022-09-15T00:02:38.055Z,97147.00
2022-09-15T00:02:48.088Z,97145.00
2022-09-15T00:02:58.157Z,97143.00
2022-09-15T00:03:08.114Z,97143.00
2022-09-15T00:03:16.589Z,97147.00
2022-09-15T00:03:27.981Z,97145.00
2022-09-15T00:03:36.550Z,97145.00
2022-09-15T00:03:46.522Z,97143.00
2022-09-15T00:03:57.984Z,97145.00
2022-09-15T00:04:07.964Z,97143.00
2022-09-15T00:04:16.520Z,97143.00
2022-09-15T00:04:26.522Z,97143.00
2022-09-15T00:04:37.373Z,97145.00
2022-09-15T00:04:47.963Z,97143.00
2022-09-15T00:04:56.519Z,97143.00
2022-09-15T00:05:06.502Z,97141.00
2022-09-15T00:05:17.966Z,97143.00
2022-09-15T00:05:27.963Z,97141.00
2022-09-15T00:05:36.502Z,97139.00
2022-09-15T00:05:47.261Z,97139.00
2022-09-15T00:05:57.981Z,97141.00
2022-09-15T00:06:07.947Z,97137.00
2022-09-15T00:06:17.966Z,97137.00
2022-09-15T00:06:27.973Z,97139.00
2022-09-15T00:06:36.973Z,97137.00
2022-09-15T00:06:46.482Z,97137.00
2022-09-15T00:06:57.970Z,97137.00
2022-09-15T00:07:07.946Z,97137.00
2022-09-15T00:07:17.024Z,97137.00
2022-09-15T00:07:26.953Z,97137.00
2022-09-15T00:07:37.924Z,97137.00
2022-09-15T00:07:47.943Z,97133.00
2022-09-15T00:07:57.063Z,97139.00
2022-09-15T00:08:06.983Z,97135.00
2022-09-15T00:08:17.025Z,97137.00
2022-09-15T00:08:27.062Z,97137.00
2022-09-15T00:08:37.095Z,97137.00
2022-09-15T00:08:47.026Z,97137.00
2022-09-15T00:08:57.929Z,97137.00
2022-09-15T00:09:06.707Z,97139.00
2022-09-15T00:09:17.034Z,97137.00
2022-09-15T00:09:26.481Z,97141.00
2022-09-15T00:09:37.104Z,97139.00
2022-09-15T00:09:47.101Z,97139.00
2022-09-15T00:09:56.514Z,97143.00
2022-09-15T00:10:07.934Z,97143.00
2022-09-15T00:10:16.464Z,97141.00
2022-09-15T00:10:26.465Z,97143.00
2022-09-15T00:10:36.482Z,97143.00
2022-09-15T00:10:46.481Z,97143.00
2022-09-15T00:10:57.938Z,97145.00
2022-09-15T00:11:06.506Z,97143.00
2022-09-15T00:11:16.473Z,97143.00
2022-09-15T00:11:26.464Z,97147.00
2022-09-15T00:11:36.509Z,97145.00
2022-09-15T00:11:46.913Z,97145.00
2022-09-15T00:11:56.586Z,97147.00
2022-09-15T00:12:06.513Z,97145.00
2022-09-15T00:12:16.448Z,97149.00
2022-09-15T00:12:27.926Z,97151.00
2022-09-15T00:12:37.914Z,97151.00
2022-09-15T00:12:46.463Z,97151.00
2022-09-15T00:12:57.937Z,97155.00
2022-09-15T00:13:07.316Z,97155.00
2022-09-15T00:13:16.486Z,97155.00
2022-09-15T00:13:26.625Z,97155.00
2022-09-15T00:13:37.917Z,97155.00
2022-09-15T00:13:46.488Z,97156.00
2022-09-15T00:13:57.236Z,97155.00
2022-09-15T00:14:06.447Z,97155.00
2022-09-15T00:14:16.568Z,97153.00
2022-09-15T00:14:26.454Z,97156.00
2022-09-15T00:14:37.884Z,97156.00
2022-09-15T00:14:47.417Z,97156.00
2022-09-15T00:14:56.461Z,97158.00
2022-09-15T00:15:06.595Z,97155.00
2022-09-15T00:15:16.459Z,97158.00
2022-09-15T00:15:27.915Z,97158.00
2022-09-15T00:15:36.469Z,97156.00
2022-09-15T00:15:47.383Z,97156.00
2022-09-15T00:15:57.907Z,97156.00
2022-09-15T00:16:06.466Z,97156.00
2022-09-15T00:16:17.966Z,97158.00
2022-09-15T00:16:26.496Z,97158.00
2022-09-15T00:16:37.949Z,97156.00
2022-09-15T00:16:48.217Z,97155.00
2022-09-15T00:16:56.465Z,97155.00
2022-09-15T00:17:07.913Z,97156.00
2022-09-15T00:17:16.408Z,97155.00
2022-09-15T00:17:26.438Z,97155.00
2022-09-15T00:17:37.876Z,97155.00
2022-09-15T00:17:47.889Z,97155.00
2022-09-15T00:17:56.427Z,97156.00
2022-09-15T00:18:06.445Z,97156.00
2022-09-15T00:18:17.898Z,97156.00
2022-09-15T00:18:27.881Z,97156.00
2022-09-15T00:18:36.495Z,97155.00
2022-09-15T00:18:46.409Z,97158.00
2022-09-15T00:18:56.417Z,97158.00
2022-09-15T00:19:07.255Z,97156.00
2022-09-15T00:19:17.839Z,97155.00
2022-09-15T00:19:26.417Z,97155.00
2022-09-15T00:19:36.400Z,97155.00
2022-09-15T00:19:47.878Z,97156.00
2022-09-15T00:19:57.857Z,97156.00
2022-09-15T00:20:06.428Z,97158.00
2022-09-15T00:20:18.372Z,97158.00
2022-09-15T00:20:27.860Z,97156.00
2022-09-15T00:20:36.411Z,97158.00
2022-09-15T00:20:46.436Z,97158.00
2022-09-15T00:20:56.567Z,97158.00
2022-09-15T00:21:06.407Z,97158.00
2022-09-15T00:21:16.517Z,97156.00
2022-09-15T00:21:26.479Z,97160.00
2022-09-15T00:21:36.411Z,97158.00
2022-09-15T00:21:46.470Z,97160.00
2022-09-15T00:21:57.849Z,97160.00
2022-09-15T00:22:07.218Z,97158.00
2022-09-15T00:22:17.847Z,97162.00
2022-09-15T00:22:27.841Z,97160.00
2022-09-15T00:22:37.168Z,97160.00
2022-09-15T00:22:46.716Z,97160.00
2022-09-15T00:22:56.778Z,97158.00
2022-09-15T00:23:06.787Z,97160.00
2022-09-15T00:23:16.718Z,97160.00
2022-09-15T00:23:27.348Z,97160.00
2022-09-15T00:23:36.529Z,97158.00
2022-09-15T00:23:46.361Z,97160.00
2022-09-15T00:23:56.810Z,97160.00
2022-09-15T00:24:06.372Z,97162.00
2022-09-15T00:24:16.487Z,97160.00
2022-09-15T00:24:26.455Z,97158.00
2022-09-15T00:24:37.819Z,97162.00
2022-09-15T00:24:46.442Z,97160.00
2022-09-15T00:24:56.867Z,97162.00
2022-09-15T00:25:06.358Z,97160.00
2022-09-15T00:25:16.369Z,97164.00
2022-09-15T00:25:27.855Z,97164.00
2022-09-15T00:25:36.361Z,97164.00
2022-09-15T00:25:46.846Z,97160.00
2022-09-15T00:25:57.790Z,97162.00
2022-09-15T00:26:07.811Z,97162.00
2022-09-15T00:26:17.838Z,97162.00
2022-09-15T00:26:27.843Z,97162.00
2022-09-15T00:26:37.846Z,97162.00
2022-09-15T00:26:46.972Z,97160.00
2022-09-15T00:26:56.884Z,97162.00
2022-09-15T00:27:07.360Z,97160.00
2022-09-15T00:27:16.357Z,97160.00
2022-09-15T00:27:26.377Z,97162.00
2022-09-15T00:27:36.340Z,97162.00
2022-09-15T00:27:46.394Z,97162.00
2022-09-15T00:27:57.799Z,97162.00
2022-09-15T00:28:07.160Z,97160.00
2022-09-15T00:28:17.809Z,97160.00
2022-09-15T00:28:26.379Z,97160.00
2022-09-15T00:28:36.339Z,97158.00
2022-09-15T00:28:46.555Z,97160.00
2022-09-15T00:28:56.461Z,97160.00
2022-09-15T00:29:07.032Z,97158.00
2022-09-15T00:29:16.350Z,97156.00
2022-09-15T00:29:27.000Z,97160.00
2022-09-15T00:29:37.295Z,97158.00
2022-09-15T00:29:47.077Z,97158.00
2022-09-15T00:29:57.110Z,97156.00
2022-09-15T00:30:06.342Z,97162.00
2022-09-15T00:30:17.912Z,97162.00
2022-09-15T00:30:27.819Z,97158.00
2022-09-15T00:30:37.893Z,97162.00
2022-09-15T00:30:47.286Z,97162.00
2022-09-15T00:30:56.370Z,97162.00
2022-09-15T00:31:07.196Z,97160.00
2022-09-15T00:31:16.481Z,97162.00
2022-09-15T00:31:27.148Z,97160.00
2022-09-15T00:31:36.521Z,97160.00
2022-09-15T00:31:46.539Z,97164.00
2022-09-15T00:31:56.351Z,97162.00
2022-09-15T00:32:06.337Z,97160.00
2022-09-15T00:32:17.779Z,97160.00
2022-09-15T00:32:26.333Z,97162.00
2022-09-15T00:32:37.787Z,97162.00
2022-09-15T00:32:47.787Z,97164.00
2022-09-15T00:32:57.811Z,97162.00
2022-09-15T00:33:06.338Z,97164.00
2022-09-15T00:33:17.062Z,97166.00
2022-09-15T00:33:27.159Z,97164.00
2022-09-15T00:33:37.764Z,97162.00
2022-09-15T00:33:47.752Z,97166.00
2022-09-15T00:33:56.311Z,97164.00
2022-09-15T00:34:06.373Z,97164.00
2022-09-15T00:34:16.284Z,97166.00
2022-09-15T00:34:26.322Z,97166.00
2022-09-15T00:34:36.303Z,97164.00
2022-09-15T00:34:46.323Z,97166.00
2022-09-15T00:34:56.301Z,97164.00
2022-09-15T00:35:07.773Z,97166.00
2022-09-15T00:35:16.292Z,97168.00
2022-09-15T00:35:26.323Z,97166.00
2022-09-15T00:35:36.362Z,97164.00
2022-09-15T00:35:46.292Z,97164.00
2022-09-15T00:35:56.354Z,97162.00
2022-09-15T00:36:06.372Z,97168.00
2022-09-15T00:36:16.292Z,97166.00
2022-09-15T00:36:26.333Z,97164.00
2022-09-15T00:36:36.370Z,97164.00
2022-09-15T00:36:46.311Z,97166.00
2022-09-15T00:36:57.736Z,97164.00
2022-09-15T00:37:06.373Z,97166.00
2022-09-15T00:37:16.403Z,97166.00
2022-09-15T00:37:26.292Z,97166.00
2022-09-15T00:37:36.293Z,97164.00
2022-09-15T00:37:46.424Z,97164.00
2022-09-15T00:37:57.753Z,97166.00
2022-09-15T00:38:07.306Z,97166.00
2022-09-15T00:38:17.737Z,97164.00
2022-09-15T00:38:26.353Z,97164.00
2022-09-15T00:38:36.312Z,97162.00
2022-09-15T00:38:47.177Z,97164.00
2022-09-15T00:38:56.284Z,97164.00
2022-09-15T00:39:07.819Z,97164.00
2022-09-15T00:39:17.725Z,97162.00
2022-09-15T00:39:27.764Z,97164.00
2022-09-15T00:39:37.796Z,97162.00
2022-09-15T00:39:46.301Z,97160.00
2022-09-15T00:39:56.367Z,97162.00
2022-09-15T00:40:06.332Z,97162.00
2022-09-15T00:40:17.784Z,97164.00
2022-09-15T00:40:27.804Z,97162.00
2022-09-15T00:40:36.276Z,97162.00
2022-09-15T00:40:46.311Z,97162.00
2022-09-15T00:40:57.713Z,97162.00
2022-09-15T00:41:07.744Z,97162.00
2022-09-15T00:41:16.315Z,97162.00
2022-09-15T00:41:27.156Z,97162.00
2022-09-15T00:41:37.701Z,97162.00
2022-09-15T00:41:46.324Z,97162.00
2022-09-15T00:41:56.313Z,97164.00
2022-09-15T00:42:06.293Z,97162.00
2022-09-15T00:42:17.753Z,97162.00
2022-09-15T00:42:26.297Z,97162.00
2022-09-15T00:42:36.247Z,97160.00
2022-09-15T00:42:46.354Z,97162.00
2022-09-15T00:42:56.294Z,97162.00
2022-09-15T00:43:06.324Z,97162.00
2022-09-15T00:43:16.445Z,97166.00
2022-09-15T00:43:26.265Z,97166.00
2022-09-15T00:43:37.711Z,97166.00
2022-09-15T00:43:47.698Z,97164.00
2022-09-15T00:43:56.254Z,97166.00
2022-09-15T00:44:07.281Z,97168.00
2022-09-15T00:44:16.272Z,97166.00
2022-09-15T00:44:27.703Z,97168.00
2022-09-15T00:44:36.309Z,97166.00
2022-09-15T00:44:46.227Z,97166.00
2022-09-15T00:44:56.302Z,97166.00
2022-09-15T00:45:06.298Z,97166.00
2022-09-15T00:45:17.720Z,97166.00
2022-09-15T00:45:26.320Z,97166.00
2022-09-15T00:45:36.276Z,97166.00
2022-09-15T00:45:47.772Z,97168.00
2022-09-15T00:45:56.278Z,97168.00
2022-09-15T00:46:07.280Z,97166.00
2022-09-15T00:46:17.683Z,97168.00
2022-09-15T00:46:27.690Z,97168.00
2022-09-15T00:46:36.263Z,97166.00
2022-09-15T00:47:04.033Z,97168.00
2022-09-15T00:47:17.813Z,97166.00
2022-09-15T00:47:19.231Z,97166.00
2022-09-15T00:47:20.011Z,97166.00
2022-09-15T00:47:29.862Z,97164.00
2022-09-15T00:47:38.898Z,97168.00
2022-09-15T00:47:50.336Z,97168.00
2022-09-15T00:48:00.392Z,97168.00
2022-09-15T00:48:08.902Z,97168.00
2022-09-15T00:48:18.872Z,97166.00
2022-09-15T00:48:28.922Z,97164.00
2022-09-15T00:48:38.902Z,97164.00
2022-09-15T00:48:48.949Z,97166.00
2022-09-15T00:48:58.869Z,97168.00
2022-09-15T00:49:10.319Z,97168.00
2022-09-15T00:49:18.880Z,97164.00
2022-09-15T00:49:30.342Z,97166.00
2022-09-15T00:49:38.909Z,97162.00
2022-09-15T00:49:48.927Z,97164.00
2022-09-15T00:49:59.566Z,97166.00
2022-09-15T00:50:08.873Z,97166.00
2022-09-15T00:50:18.931Z,97166.00
2022-09-15T00:50:30.307Z,97164.00
2022-09-15T00:50:39.819Z,97168.00
2022-09-15T00:50:50.310Z,97166.00
2022-09-15T00:50:58.889Z,97166.00
2022-09-15T00:51:10.330Z,97166.00
2022-09-15T00:51:19.076Z,97168.00
2022-09-15T00:51:29.000Z,97166.00
2022-09-15T00:51:38.900Z,97168.00
2022-09-15T00:51:49.069Z,97168.00
2022-09-15T00:51:58.860Z,97170.00
2022-09-15T00:52:10.320Z,97168.00
2022-09-15T00:52:19.077Z,97168.00
2022-09-15T00:52:28.839Z,97166.00
2022-09-15T00:52:39.141Z,97166.00
2022-09-15T00:52:50.290Z,97170.00
2022-09-15T00:53:00.308Z,97170.00
2022-09-15T00:53:09.828Z,97168.00
2022-09-15T00:53:18.851Z,97168.00
2022-09-15T00:53:29.221Z,97170.00
2022-09-15T00:53:40.357Z,97170.00
2022-09-15T00:53:50.410Z,97170.00
2022-09-15T00:53:58.869Z,97168.00
2022-09-15T00:54:10.290Z,97172.00
2022-09-15T00:54:20.312Z,97172.00
2022-09-15T00:54:30.322Z,97170.00
2022-09-15T00:54:40.308Z,97170.00
2022-09-15T00:54:50.305Z,97172.00
2022-09-15T00:54:58.843Z,97172.00
2022-09-15T00:55:09.273Z,97172.00
2022-09-15T00:55:20.283Z,97176.00
2022-09-15T00:55:28.830Z,97172.00
2022-09-15T00:55:38.846Z,97176.00
2022-09-15T00:55:48.822Z,97174.00
2022-09-15T00:55:58.893Z,97174.00
2022-09-15T00:56:08.831Z,97174.00
2022-09-15T00:56:20.301Z,97174.00
2022-09-15T00:56:30.281Z,97176.00
2022-09-15T00:56:40.284Z,97176.00
2022-09-15T00:56:49.785Z,97176.00
2022-09-15T00:56:58.822Z,97178.00
2022-09-15T00:57:10.271Z,97178.00
2022-09-15T00:57:18.821Z,97178.00
2022-09-15T00:57:30.261Z,97176.00
2022-09-15T00:57:40.261Z,97176.00
2022-09-15T00:57:50.261Z,97178.00
2022-09-15T00:58:00.274Z,97178.00
2022-09-15T00:58:09.832Z,97178.00
2022-09-15T00:58:19.412Z,97180.00
2022-09-15T00:58:28.804Z,97180.00
2022-09-15T00:58:40.330Z,97180.00
2022-09-15T00:58:50.259Z,97180.00
2022-09-15T00:59:00.282Z,97178.00
2022-09-15T00:59:10.288Z,97178.00
2022-09-15T00:59:18.800Z,97180.00
2022-09-15T00:59:30.247Z,97180.00
2022-09-15T00:59:38.821Z,97178.00
2022-09-15T00:59:50.263Z,97180.00
2022-09-15T01:00:00.283Z,97180.00
2022-09-15T01:00:10.253Z,97176.00
2022-09-15T01:00:18.870Z,97180.00
2022-09-15T01:00:28.781Z,97180.00
2022-09-15T01:00:38.802Z,97178.00
2022-09-15T01:00:48.867Z,97176.00
2022-09-15T01:00:58.896Z,97178.00
2022-09-15T01:01:08.818Z,97178.00
2022-09-15T01:01:18.937Z,97178.00
2022-09-15T01:01:28.824Z,97176.00
2022-09-15T01:01:38.858Z,97178.00
2022-09-15T01:01:49.333Z,97182.00
2022-09-15T01:01:58.860Z,97174.00
2022-09-15T01:02:08.966Z,97176.00
2022-09-15T01:02:20.277Z,97178.00
2022-09-15T01:02:28.892Z,97180.00
2022-09-15T01:02:40.302Z,97178.00
2022-09-15T01:02:48.862Z,97180.00
2022-09-15T01:02:58.793Z,97178.00
2022-09-15T01:03:10.243Z,97178.00
2022-09-15T01:03:19.727Z,97180.00
2022-09-15T01:03:28.792Z,97176.00
2022-09-15T01:03:38.842Z,97182.00
2022-09-15T01:03:49.625Z,97178.00
2022-09-15T01:04:00.274Z,97178.00
2022-09-15T01:04:10.256Z,97180.00
2022-09-15T01:04:18.793Z,97178.00
2022-09-15T01:04:30.279Z,97180.00
2022-09-15T01:04:38.762Z,97180.00
2022-09-15T01:04:49.525Z,97180.00
2022-09-15T01:04:59.049Z,97182.00
2022-09-15T01:05:10.259Z,97180.00
2022-09-15T01:05:20.251Z,97178.00
2022-09-15T01:05:28.822Z,97180.00
2022-09-15T01:05:38.773Z,97180.00
2022-09-15T01:05:48.964Z,97182.00
2022-09-15T01:05:58.802Z,97182.00
2022-09-15T01:06:08.816Z,97178.00
2022-09-15T01:06:18.847Z,97178.00
2022-09-15T01:06:28.784Z,97180.00
2022-09-15T01:06:38.794Z,97178.00
2022-09-15T01:06:48.839Z,97176.00
2022-09-15T01:06:58.814Z,97176.00
2022-09-15T01:07:08.952Z,97176.00
2022-09-15T01:07:18.838Z,97176.00
2022-09-15T01:07:28.790Z,97178.00
2022-09-15T01:07:40.184Z,97176.00
2022-09-15T01:07:49.495Z,97178.00
2022-09-15T01:08:00.239Z,97176.00
2022-09-15T01:08:08.746Z,97176.00
2022-09-15T01:08:19.708Z,97176.00
2022-09-15T01:08:28.900Z,97176.00
2022-09-15T01:08:38.745Z,97176.00
2022-09-15T01:08:48.749Z,97174.00
2022-09-15T01:09:00.245Z,97174.00
2022-09-15T01:09:10.205Z,97172.00
2022-09-15T01:09:19.059Z,97174.00
2022-09-15T01:09:28.724Z,97174.00
2022-09-15T01:09:39.726Z,97174.00
2022-09-15T01:09:49.594Z,97172.00
2022-09-15T01:09:58.745Z,97172.00
2022-09-15T01:10:10.215Z,97174.00
2022-09-15T01:10:19.524Z,97170.00
2022-09-15T01:10:30.188Z,97172.00
2022-09-15T01:10:40.205Z,97174.00
2022-09-15T01:10:48.757Z,97172.00
2022-09-15T01:11:00.195Z,97170.00
2022-09-15T01:11:08.726Z,97170.00
2022-09-15T01:11:18.805Z,97172.00
2022-09-15T01:11:28.746Z,97172.00
2022-09-15T01:11:38.745Z,97172.00
2022-09-15T01:11:49.624Z,97174.00
2022-09-15T01:11:58.726Z,97176.00
2022-09-15T01:12:08.794Z,97174.00
2022-09-15T01:12:18.996Z,97174.00
2022-09-15T01:12:29.029Z,97176.00
2022-09-15T01:12:38.757Z,97172.00
2022-09-15T01:12:48.745Z,97176.00
2022-09-15T01:12:58.968Z,97172.00
2022-09-15T01:13:10.175Z,97174.00
2022-09-15T01:13:19.106Z,97176.00
2022-09-15T01:13:29.036Z,97178.00
2022-09-15T01:13:38.866Z,97176.00
2022-09-15T01:13:48.716Z,97178.00
2022-09-15T01:13:59.686Z,97180.00
2022-09-15T01:14:09.120Z,97176.00
2022-09-15T01:14:19.111Z,97178.00
2022-09-15T01:14:28.729Z,97178.00
2022-09-15T01:14:38.706Z,97178.00
2022-09-15T01:14:48.805Z,97180.00
2022-09-15T01:14:59.152Z,97180.00
2022-09-15T01:15:10.139Z,97178.00
2022-09-15T01:15:19.035Z,97180.00
2022-09-15T01:15:28.686Z,97178.00
2022-09-15T01:16:16.189Z,97178.00
2022-09-15T01:16:27.605Z,97180.00
2022-09-15T01:16:36.109Z,97182.00
2022-09-15T01:16:47.538Z,97180.00
2022-09-15T01:16:57.649Z,97182.00
2022-09-15T01:17:07.584Z,97180.00
2022-09-15T01:17:16.058Z,97180.00
2022-09-15T01:17:26.084Z,97182.00
2022-09-15T01:17:36.073Z,97180.00
2022-09-15T01:17:46.112Z,97180.00
2022-09-15T01:17:56.037Z,97180.00
2022-09-15T01:18:06.043Z,97182.00
2022-09-15T01:18:17.047Z,97180.00
2022-09-15T01:18:26.102Z,97180.00
2022-09-15T01:18:37.509Z,97182.00
2022-09-15T01:18:46.082Z,97180.00
2022-09-15T01:18:56.043Z,97180.00
2022-09-15T01:19:06.994Z,97180.00
2022-09-15T01:19:16.073Z,97182.00
2022-09-15T01:19:26.058Z,97182.00
2022-09-15T01:19:37.593Z,97184.00
2022-09-15T01:19:46.086Z,97180.00
2022-09-15T01:19:56.043Z,97182.00
2022-09-15T01:20:07.471Z,97180.00
2022-09-15T01:20:16.073Z,97182.00
2022-09-15T01:20:27.533Z,97180.00
2022-09-15T01:20:36.025Z,97182.00
2022-09-15T01:20:46.027Z,97182.00
2022-09-15T01:20:56.062Z,97184.00
2022-09-15T01:21:06.160Z,97182.00
2022-09-15T01:21:16.002Z,97184.00
2022-09-15T01:21:27.477Z,97184.00
2022-09-15T01:21:36.042Z,97182.00
2022-09-15T01:21:46.014Z,97182.00
2022-09-15T01:21:58.978Z,97184.00
2022-09-15T01:22:06.006Z,97182.00
2022-09-15T01:22:16.037Z,97184.00
2022-09-15T01:22:26.048Z,97184.00
2022-09-15T01:22:36.068Z,97184.00
2022-09-15T01:22:46.095Z,97182.00
2022-09-15T01:22:56.082Z,97184.00
2022-09-15T01:23:07.066Z,97184.00
2022-09-15T01:23:17.532Z,97184.00
2022-09-15T01:23:27.474Z,97182.00
2022-09-15T01:23:36.043Z,97184.00
2022-09-15T01:23:47.513Z,97182.00
2022-09-15T01:23:57.484Z,97182.00
2022-09-15T01:24:07.483Z,97186.00
2022-09-15T01:24:17.459Z,97184.00
2022-09-15T01:24:26.010Z,97184.00
2022-09-15T01:24:36.722Z,97186.00
2022-09-15T01:24:46.717Z,97186.00
2022-09-15T01:24:56.054Z,97186.00
2022-09-15T01:25:06.212Z,97186.00
2022-09-15T01:25:15.982Z,97186.00
2022-09-15T01:25:27.495Z,97186.00
2022-09-15T01:25:37.465Z,97186.00
2022-09-15T01:25:46.970Z,97186.00
2022-09-15T01:25:56.769Z,97184.00
2022-09-15T01:26:06.737Z,97186.00
2022-09-15T01:26:16.759Z,97186.00
2022-09-15T01:26:27.410Z,97186.00
2022-09-15T01:26:37.461Z,97186.00
2022-09-15T01:26:46.001Z,97194.00
2022-09-15T01:26:56.000Z,97194.00
2022-09-15T01:27:18.784Z,97194.00
2022-09-15T01:27:38.178Z,97194.00
2022-09-15T01:27:41.489Z,97194.00
2022-09-15T01:27:42.532Z,97186.00
2022-09-15T01:27:48.121Z,97186.00
2022-09-15T01:27:58.127Z,97186.00
2022-09-15T01:28:09.516Z,97184.00
2022-09-15T01:28:19.589Z,97194.00
2022-09-15T01:28:28.122Z,97194.00
2022-09-15T01:28:39.071Z,97184.00
2022-09-15T01:28:48.111Z,97186.00
2022-09-15T01:28:58.841Z,97184.00
2022-09-15T01:29:09.889Z,97182.00
2022-09-15T01:29:21.744Z,97182.00
2022-09-15T01:29:29.900Z,97180.00
2022-09-15T01:29:38.461Z,97184.00
2022-09-15T01:29:49.906Z,97184.00
2022-09-15T01:29:58.449Z,97182.00
2022-09-15T01:30:08.452Z,97182.00
2022-09-15T01:30:18.481Z,97182.00
2022-09-15T01:30:29.923Z,97182.00
2022-09-15T01:30:38.523Z,97182.00
2022-09-15T01:30:48.521Z,97184.00
2022-09-15T01:30:58.481Z,97182.00
2022-09-15T01:31:08.452Z,97186.00
2022-09-15T01:31:18.506Z,97184.00
2022-09-15T01:31:28.437Z,97184.00
2022-09-15T01:31:38.476Z,97184.00
2022-09-15T01:31:49.952Z,97184.00
2022-09-15T01:31:58.519Z,97184.00
2022-09-15T01:32:08.421Z,97182.00
2022-09-15T01:32:18.425Z,97182.00
2022-09-15T01:32:28.441Z,97182.00
2022-09-15T01:32:39.883Z,97184.00
2022-09-15T01:32:49.861Z,97180.00
2022-09-15T01:32:59.062Z,97182.00
2022-09-15T01:33:08.393Z,97184.00
2022-09-15T01:33:18.423Z,97178.00
2022-09-15T01:33:29.883Z,97178.00
2022-09-15T01:33:38.431Z,97182.00
2022-09-15T01:33:49.143Z,97178.00
2022-09-15T01:33:59.282Z,97178.00
2022-09-15T01:34:08.422Z,97176.00
2022-09-15T01:34:19.859Z,97178.00
2022-09-15T01:34:28.391Z,97178.00
2022-09-15T01:34:38.422Z,97180.00
2022-09-15T01:34:48.412Z,97182.00
2022-09-15T01:34:58.391Z,97178.00
2022-09-15T01:35:08.392Z,97178.00
2022-09-15T01:35:18.362Z,97178.00
2022-09-15T01:35:28.433Z,97180.00
2022-09-15T01:35:38.487Z,97180.00
2022-09-15T01:35:48.404Z,97178.00
2022-09-15T01:35:59.890Z,97178.00
2022-09-15T01:36:09.822Z,97182.00
2022-09-15T01:36:18.402Z,97178.00
2022-09-15T01:36:28.412Z,97178.00
2022-09-15T01:36:39.838Z,97178.00
2022-09-15T01:36:48.373Z,97178.00
2022-09-15T01:36:59.320Z,97178.00
2022-09-15T01:37:08.387Z,97178.00
2022-09-15T01:37:18.421Z,97178.00
2022-09-15T01:37:28.396Z,97178.00
2022-09-15T01:37:38.389Z,97178.00
2022-09-15T01:37:49.833Z,97180.00
2022-09-15T01:37:59.383Z,97176.00
2022-09-15T01:38:08.343Z,97174.00
2022-09-15T01:38:18.364Z,97178.00
2022-09-15T01:38:28.594Z,97180.00
2022-09-15T01:38:38.385Z,97180.00
2022-09-15T01:38:48.365Z,97178.00
2022-09-15T01:38:58.391Z,97180.00
2022-09-15T01:39:08.343Z,97180.00
2022-09-15T01:39:19.804Z,97180.00
2022-09-15T01:39:28.397Z,97180.00
2022-09-15T01:39:38.344Z,97180.00
2022-09-15T01:39:48.408Z,97180.00
2022-09-15T01:39:58.469Z,97178.00
2022-09-15T01:40:08.452Z,97178.00
2022-09-15T01:40:19.033Z,97176.00
2022-09-15T01:40:28.473Z,97178.00
2022-09-15T01:40:39.846Z,97178.00
2022-09-15T01:40:49.814Z,97178.00
2022-09-15T01:40:58.426Z,97176.00
2022-09-15T01:41:08.465Z,97178.00
2022-09-15T01:41:18.352Z,97178.00
2022-09-15T01:41:28.535Z,97178.00
2022-09-15T01:41:38.417Z,97178.00
2022-09-15T01:41:48.351Z,97178.00
2022-09-15T01:41:58.559Z,97178.00
2022-09-15T01:42:09.819Z,97180.00
2022-09-15T01:42:19.903Z,97174.00
2022-09-15T01:42:28.354Z,97178.00
2022-09-15T01:42:38.353Z,97176.00
2022-09-15T01:42:48.384Z,97174.00
2022-09-15T01:42:58.543Z,97174.00
2022-09-15T01:43:08.368Z,97174.00
2022-09-15T01:43:18.402Z,97174.00
2022-09-15T01:43:28.385Z,97176.00
2022-09-15T01:43:38.318Z,97174.00
2022-09-15T01:43:48.334Z,97174.00
2022-09-15T01:43:58.376Z,97174.00
2022-09-15T01:44:08.413Z,97172.00
2022-09-15T01:44:18.410Z,97174.00
2022-09-15T01:44:28.345Z,97176.00
2022-09-15T01:44:39.794Z,97174.00
2022-09-15T01:44:48.307Z,97174.00
2022-09-15T01:44:58.457Z,97178.00
2022-09-15T01:45:09.786Z,97176.00
2022-09-15T01:45:18.315Z,97172.00
2022-09-15T01:45:29.824Z,97176.00
2022-09-15T01:45:39.808Z,97174.00
2022-09-15T01:45:48.418Z,97180.00
2022-09-15T01:45:58.417Z,97178.00
2022-09-15T01:46:08.421Z,97174.00
2022-09-15T01:46:19.278Z,97174.00
2022-09-15T01:46:29.765Z,97176.00
2022-09-15T01:46:39.257Z,97176.00
2022-09-15T01:46:49.760Z,97176.00
2022-09-15T01:46:58.345Z,97172.00
2022-09-15T01:47:08.314Z,97174.00
2022-09-15T01:47:18.307Z,97176.00
2022-09-15T01:47:29.857Z,97172.00
2022-09-15T01:47:38.293Z,97174.00
2022-09-15T01:47:48.306Z,97174.00
2022-09-15T01:47:59.747Z,97176.00
2022-09-15T01:48:09.323Z,97176.00
2022-09-15T01:48:19.306Z,97180.00
2022-09-15T01:48:29.757Z,97176.00
2022-09-15T01:48:38.276Z,97178.00
2022-09-15T01:48:48.313Z,97176.00
2022-09-15T01:48:59.786Z,97178.00
2022-09-15T01:49:09.757Z,97176.00
2022-09-15T01:49:19.750Z,97176.00
2022-09-15T01:49:28.353Z,97176.00
2022-09-15T01:49:39.765Z,97174.00
2022-09-15T01:49:49.746Z,97176.00
2022-09-15T01:49:58.279Z,97176.00
2022-09-15T01:50:08.341Z,97174.00
2022-09-15T01:50:19.743Z,97176.00
2022-09-15T01:50:28.289Z,97176.00
2022-09-15T01:50:39.738Z,97176.00
2022-09-15T01:50:48.311Z,97176.00
2022-09-15T01:50:58.279Z,97176.00
2022-09-15T01:51:08.372Z,97174.00
2022-09-15T01:51:18.288Z,97176.00
2022-09-15T01:51:29.139Z,97174.00
2022-09-15T01:51:39.722Z,97174.00
2022-09-15T01:51:48.860Z,97178.00
2022-09-15T01:51:58.487Z,97178.00
2022-09-15T01:52:08.249Z,97174.00
2022-09-15T01:52:18.265Z,97178.00
2022-09-15T01:52:28.899Z,97178.00
2022-09-15T01:52:38.247Z,97178.00
2022-09-15T01:52:48.290Z,97178.00
2022-09-15T01:52:59.734Z,97174.00
2022-09-15T01:53:08.248Z,97178.00
2022-09-15T01:53:19.735Z,97178.00
2022-09-15T01:53:29.717Z,97176.00
2022-09-15T01:53:39.002Z,97174.00
2022-09-15T01:53:48.979Z,97178.00
2022-09-15T01:53:58.239Z,97176.00
2022-09-15T01:54:08.260Z,97178.00
2022-09-15T01:54:19.710Z,97178.00
2022-09-15T01:54:28.276Z,97178.00
2022-09-15T01:54:39.327Z,97178.00
2022-09-15T01:54:48.460Z,97178.00
2022-09-15T01:54:58.811Z,97176.00
2022-09-15T01:55:08.291Z,97178.00
2022-09-15T01:55:18.259Z,97176.00
2022-09-15T01:55:28.238Z,97174.00
2022-09-15T01:55:39.701Z,97176.00
2022-09-15T01:55:49.089Z,97176.00
2022-09-15T01:55:58.223Z,97174.00
2022-09-15T01:56:08.227Z,97176.00
2022-09-15T01:56:19.707Z,97176.00
2022-09-15T01:56:28.248Z,97172.00
2022-09-15T01:56:39.684Z,97178.00
2022-09-15T01:56:48.228Z,97174.00
2022-09-15T01:56:59.130Z,97178.00
2022-09-15T01:57:09.682Z,97174.00
2022-09-15T01:57:18.279Z,97174.00
2022-09-15T01:57:29.664Z,97174.00
2022-09-15T01:57:39.678Z,97176.00
2022-09-15T01:57:49.044Z,97174.00
2022-09-15T01:57:58.260Z,97178.00
2022-09-15T01:58:09.712Z,97176.00